Main page
METAR-TAF:

METAR-TAF

Airports :

Ilhéus Jorge Amado Airport

Ilhéus, Bahia, Brazil

latitude: 14-49S, longitude: 039-02W, elevation: 4 m

Current weather observation

The report was made 14 hours and 15 minutes ago, at 09:00 UTC
Wind 9 kt from the East/Northeast
Temperature 25°C
Humidity 79%
Pressure 1018 hPa
Visibility 10 km or more
Few clouds at a height of 2300 ft
Scattered clouds at a height of 4500 ft
showers in vicinity

METAR: SBIL 200900Z 06009KT 9999 VCSH FEW023 SCT045 25/21 Q1018

Time: 20:15 (23:15 UTC)

Forecast

The report was made 8 hours and 15 minutes ago, at 15:00 UTC
Forecast valid from 20 at 18 UTC to 21 at 06 UTC
Wind 7 kt from the East/Northeast
Visibility: 8000 m
Scattered clouds at a height of 2000 ft

TAF: SBIL 201500Z 2018/2106 06007KT 8000 SCT020 TX28/2018Z TN25/2105Z RMK PEU

Weather observations and forecasts of more than 4000 airports (METAR and TAF reports).

The available stations are represented by yellow and red dots on the map.

Hover mouse over dot to see the name of the station.

Then click to see weather observations and forecasts.

To change the map : click on the green buttons with a black cross to zoom in, on the green button with a dash to zoom out, or on the green arrows for adjacent maps.


METAR-TAF: